Time;durP1;ratioP1;P1;durP2;ratioP2;P2;SDS_P1;SDS_P2;PMS_P1;PMS_P2;Temp;Humidity;BMP_temperature;BMP_pressure;BME280_temperature;BME280_humidity;BME280_pressure;Samples;Min_cycle;Max_cycle;Signal;HPM_P1;HPM_P2
2021/08/19 00:01:58;;;;;;;13.43;6.50;;;;;;;-145.01;100.00;64805.59;4995721;28;20069;-61
2021/08/19 00:04:23;;;;;;;10.00;5.95;;;;;;;-145.01;100.00;64805.59;4995889;28;20413;-61
2021/08/19 00:06:49;;;;;;;11.45;6.05;;;;;;;-145.01;100.00;64805.59;4995484;28;20408;-61
2021/08/19 00:09:14;;;;;;;9.02;5.82;;;;;;;-145.01;100.00;64805.59;4995584;28;20050;-62
2021/08/19 00:11:40;;;;;;;9.85;5.82;;;;;;;-145.01;100.00;64805.59;4995560;28;20251;-61
2021/08/19 00:14:05;;;;;;;12.45;5.75;;;;;;;-145.01;100.00;64805.59;4995685;28;20034;-60
2021/08/19 00:16:31;;;;;;;10.88;5.55;;;;;;;-145.01;100.00;64805.59;4995286;28;20050;-61
2021/08/19 00:18:56;;;;;;;7.75;4.97;;;;;;;-145.01;100.00;64805.59;4995833;28;20018;-62
2021/08/19 00:21:21;;;;;;;10.23;4.82;;;;;;;-145.01;100.00;64805.59;4994035;28;20514;-61
2021/08/19 00:23:47;;;;;;;10.77;4.25;;;;;;;-145.01;100.00;64805.59;4994245;28;20052;-61
2021/08/19 00:26:12;;;;;;;7.28;4.22;;;;;;;-145.01;100.00;64805.59;4995088;28;20398;-61
2021/08/19 00:28:38;;;;;;;8.27;4.40;;;;;;;-145.01;100.00;64805.59;4995284;28;20022;-61
2021/08/19 00:31:03;;;;;;;8.18;4.78;;;;;;;-145.01;100.00;64805.59;4994862;28;20042;-61
2021/08/19 00:33:29;;;;;;;7.78;4.60;;;;;;;-145.01;100.00;64805.59;4994252;28;20029;-61
2021/08/19 00:35:54;;;;;;;12.70;4.53;;;;;;;-145.01;100.00;64805.59;4994965;28;20053;-61
2021/08/19 00:38:21;;;;;;;9.25;5.03;;;;;;;-145.01;100.00;64805.59;4994720;28;20512;-61
2021/08/19 00:40:47;;;;;;;9.05;4.95;;;;;;;-145.01;100.00;64805.59;4993415;28;20030;-61
2021/08/19 00:43:12;;;;;;;8.55;4.60;;;;;;;-145.01;100.00;64805.59;4994980;28;20039;-61
2021/08/19 00:45:38;;;;;;;9.32;5.00;;;;;;;-145.01;100.00;64805.59;4994950;28;20034;-61
2021/08/19 00:48:04;;;;;;;10.50;6.75;;;;;;;-145.01;100.00;64805.59;5026560;28;20473;-61
2021/08/19 00:50:29;;;;;;;13.25;7.25;;;;;;;-145.01;100.00;64805.59;4994741;28;20170;-61
2021/08/19 00:52:56;;;;;;;14.07;9.05;;;;;;;-145.01;100.00;64805.59;4995097;28;20109;-61
2021/08/19 00:55:22;;;;;;;14.05;8.25;;;;;;;-145.01;100.00;64805.59;4994654;28;20038;-61
2021/08/19 00:57:47;;;;;;;13.27;8.32;;;;;;;-145.01;100.00;64805.59;4994881;28;20041;-61
2021/08/19 01:00:13;;;;;;;16.98;8.43;;;;;;;-145.01;100.00;64805.59;4994703;28;20388;-61
2021/08/19 01:02:42;;;;;;;18.70;8.77;;;;;;;-145.01;100.00;64805.59;4994930;28;20448;-61
2021/08/19 01:05:10;;;;;;;14.17;8.50;;;;;;;-145.01;100.00;64805.59;4993423;28;20030;-62
2021/08/19 01:07:35;;;;;;;13.57;8.68;;;;;;;-145.01;100.00;64805.59;4994906;28;20275;-61
2021/08/19 01:10:01;;;;;;;16.48;9.35;;;;;;;-145.01;100.00;64805.59;4994204;28;20050;-63
2021/08/19 01:12:26;;;;;;;15.63;9.05;;;;;;;-145.01;100.00;64805.59;4993067;28;20038;-61
2021/08/19 01:14:52;;;;;;;15.15;8.35;;;;;;;-145.01;100.00;64805.59;4994670;28;20061;-61
2021/08/19 01:17:18;;;;;;;17.80;9.18;;;;;;;-145.01;100.00;64805.59;4994370;28;20084;-61
2021/08/19 01:19:46;;;;;;;20.45;9.60;;;;;;;-145.01;100.00;64805.59;4994671;28;20034;-62
2021/08/19 01:22:12;;;;;;;16.13;9.25;;;;;;;-145.01;100.00;64805.59;4992778;28;20448;-61
2021/08/19 01:24:38;;;;;;;17.23;9.93;;;;;;;-145.01;100.00;64805.59;4994418;28;20058;-61
2021/08/19 01:27:03;;;;;;;15.55;9.38;;;;;;;-145.01;100.00;64805.59;4992711;28;20031;-61
2021/08/19 01:29:29;;;;;;;15.23;10.05;;;;;;;-145.01;100.00;64805.59;4994227;28;20018;-61
2021/08/19 01:31:58;;;;;;;21.58;10.05;;;;;;;-145.01;100.00;64805.59;4992767;28;20082;-61
2021/08/19 01:34:23;;;;;;;16.63;9.63;;;;;;;-145.01;100.00;64805.59;4994379;28;20034;-61
2021/08/19 01:36:49;;;;;;;19.10;10.45;;;;;;;-145.01;100.00;64805.59;4993605;28;20050;-61
2021/08/19 01:39:14;;;;;;;18.15;9.68;;;;;;;-145.01;100.00;64805.59;4994128;28;20042;-61
2021/08/19 01:41:40;;;;;;;18.58;10.38;;;;;;;-145.01;100.00;64805.59;4992491;28;20030;-60
2021/08/19 01:44:05;;;;;;;19.30;10.35;;;;;;;-145.01;100.00;64805.59;4994035;28;20038;-60
2021/08/19 01:46:30;;;;;;;21.48;10.23;;;;;;;-145.01;100.00;64805.59;4993619;28;20058;-60
2021/08/19 01:48:56;;;;;;;24.08;9.95;;;;;;;-145.01;100.00;64805.59;4994178;28;20023;-60
2021/08/19 01:51:21;;;;;;;17.33;10.00;;;;;;;-145.01;100.00;64805.59;4992978;28;20508;-61
2021/08/19 01:53:50;;;;;;;16.33;9.77;;;;;;;-145.01;100.00;64805.59;4994075;28;20057;-60
2021/08/19 01:56:19;;;;;;;17.98;9.50;;;;;;;-145.01;100.00;64805.59;4992214;28;20043;-61
2021/08/19 01:58:46;;;;;;;17.88;9.85;;;;;;;-145.01;100.00;64805.59;4992886;28;20065;-61
2021/08/19 02:01:17;;;;;;;18.90;9.00;;;;;;;-145.01;100.00;64805.59;4992364;28;20112;-61
2021/08/19 02:03:42;;;;;;;16.70;9.02;;;;;;;-145.01;100.00;64805.59;4993941;28;20388;-61
2021/08/19 02:06:08;;;;;;;17.88;10.02;;;;;;;-145.01;100.00;64805.59;4993420;28;20038;-61
2021/08/19 02:08:33;;;;;;;16.40;9.60;;;;;;;-145.01;100.00;64805.59;4993772;28;20081;-61
2021/08/19 02:10:59;;;;;;;17.58;8.65;;;;;;;-145.01;100.00;64805.59;4993551;28;20027;-61
2021/08/19 02:13:24;;;;;;;18.77;9.13;;;;;;;-145.01;100.00;64805.59;4993689;28;20033;-61
2021/08/19 02:15:49;;;;;;;15.23;8.55;;;;;;;-145.01;100.00;64805.59;4993350;28;20042;-61
2021/08/19 02:18:15;;;;;;;16.25;8.85;;;;;;;-145.01;100.00;64805.59;4993778;28;20031;-61
2021/08/19 02:20:40;;;;;;;15.73;9.05;;;;;;;-145.01;100.00;64805.59;4993302;28;20473;-61
2021/08/19 02:23:06;;;;;;;15.48;8.55;;;;;;;-145.01;100.00;64805.59;4993479;28;20030;-61
2021/08/19 02:25:31;;;;;;;20.30;8.85;;;;;;;-145.01;100.00;64805.59;4993237;28;20035;-61
2021/08/19 02:27:57;;;;;;;13.77;7.82;;;;;;;-145.01;100.00;64805.59;4993709;28;20532;-61
2021/08/19 02:30:22;;;;;;;14.27;7.97;;;;;;;-145.01;100.00;64805.59;4993173;28;20043;-61
2021/08/19 02:32:53;;;;;;;15.48;6.90;;;;;;;-145.01;100.00;64805.59;4993586;28;20148;-61
2021/08/19 02:35:19;;;;;;;13.35;7.10;;;;;;;-145.01;100.00;64805.59;4993141;28;20019;-60
2021/08/19 02:37:45;;;;;;;11.90;6.82;;;;;;;-145.01;100.00;64805.59;4993432;28;20018;-61
2021/08/19 02:40:10;;;;;;;10.30;6.25;;;;;;;-145.01;100.00;64805.59;5008164;28;20034;-61
2021/08/19 02:42:36;;;;;;;9.88;5.30;;;;;;;-145.01;100.00;64805.59;4993465;28;20476;-61
2021/08/19 02:45:02;;;;;;;11.05;5.28;;;;;;;-145.01;100.00;64805.59;4975442;28;20037;-61
2021/08/19 02:47:27;;;;;;;7.13;4.93;;;;;;;-145.01;100.00;64805.59;4993219;28;20453;-61
2021/08/19 02:49:52;;;;;;;7.75;5.13;;;;;;;-145.01;100.00;64805.59;4993273;28;20026;-61
2021/08/19 02:52:18;;;;;;;8.60;4.93;;;;;;;-145.01;100.00;64805.59;4992741;28;20085;-61
2021/08/19 02:54:43;;;;;;;9.13;5.00;;;;;;;-145.01;100.00;64805.59;4993215;28;20026;-61
2021/08/19 02:57:09;;;;;;;9.68;4.97;;;;;;;-145.01;100.00;64805.59;4992940;28;20046;-61
2021/08/19 02:59:34;;;;;;;9.38;5.10;;;;;;;-145.01;100.00;64805.59;4993227;28;20027;-61
2021/08/19 03:01:59;;;;;;;8.63;4.78;;;;;;;-145.01;100.00;64805.59;4993495;28;20034;-61
2021/08/19 03:04:25;;;;;;;9.60;5.20;;;;;;;-145.01;100.00;64805.59;5028529;28;20129;-61
2021/08/19 03:06:50;;;;;;;12.45;5.68;;;;;;;-145.01;100.00;64805.59;4996629;28;20043;-61
2021/08/19 03:09:16;;;;;;;9.23;5.38;;;;;;;-145.01;100.00;64805.59;4996954;28;20042;-61
2021/08/19 03:11:41;;;;;;;11.35;5.70;;;;;;;-145.01;100.00;64805.59;4996766;28;20046;-61
2021/08/19 03:14:07;;;;;;;11.10;5.65;;;;;;;-145.01;100.00;64805.59;4997079;28;20030;-61
2021/08/19 03:16:32;;;;;;;14.40;6.15;;;;;;;-145.01;100.00;64805.59;4995563;28;20480;-61
2021/08/19 03:18:57;;;;;;;11.23;6.15;;;;;;;-145.01;100.00;64805.59;4995730;28;20158;-61
2021/08/19 03:21:23;;;;;;;10.73;6.85;;;;;;;-145.01;100.00;64805.59;4995823;28;20037;-61
2021/08/19 03:23:48;;;;;;;15.25;6.05;;;;;;;-145.01;100.00;64805.59;4996611;28;20034;-61
2021/08/19 03:26:15;;;;;;;15.77;6.25;;;;;;;-145.01;100.00;64805.59;4996370;28;20035;-61
2021/08/19 03:28:42;;;;;;;14.27;6.82;;;;;;;-145.01;100.00;64805.59;4995323;28;20030;-61
2021/08/19 03:31:08;;;;;;;17.88;7.97;;;;;;;-145.01;100.00;64805.59;4996206;28;20054;-61
2021/08/19 03:33:33;;;;;;;11.95;6.45;;;;;;;-145.01;100.00;64805.59;4995291;28;20026;-61
2021/08/19 03:35:58;;;;;;;13.30;6.63;;;;;;;-145.01;100.00;64805.59;4996084;28;20194;-61
2021/08/19 03:38:26;;;;;;;14.32;6.88;;;;;;;-145.01;100.00;64805.59;4996678;28;20030;-61
2021/08/19 03:40:51;;;;;;;13.07;6.57;;;;;;;-145.01;100.00;64805.59;4996158;28;20042;-60
2021/08/19 03:43:16;;;;;;;15.15;6.82;;;;;;;-145.01;100.00;64805.59;4996168;28;20413;-61
2021/08/19 03:45:42;;;;;;;13.98;6.28;;;;;;;-145.01;100.00;64805.59;4996004;28;20038;-61
2021/08/19 03:48:07;;;;;;;11.43;7.15;;;;;;;-145.01;100.00;64805.59;4996238;28;20022;-61
2021/08/19 03:50:34;;;;;;;11.15;6.10;;;;;;;-145.01;100.00;64805.59;4994610;28;20034;-61
2021/08/19 03:52:59;;;;;;;15.40;6.57;;;;;;;-145.01;100.00;64805.59;4995202;28;20038;-61
2021/08/19 03:55:25;;;;;;;11.73;6.88;;;;;;;-145.01;100.00;64805.59;4996016;28;20042;-61
2021/08/19 03:57:50;;;;;;;12.77;7.28;;;;;;;-145.01;100.00;64805.59;4996255;28;20425;-60
2021/08/19 04:00:16;;;;;;;10.27;6.53;;;;;;;-145.01;100.00;64805.59;4995689;28;20493;-61
2021/08/19 04:02:44;;;;;;;12.90;7.03;;;;;;;-145.01;100.00;64805.59;4996098;28;20022;-60
2021/08/19 04:05:09;;;;;;;19.27;7.45;;;;;;;-145.01;100.00;64805.59;4994586;28;20069;-61
2021/08/19 04:07:35;;;;;;;14.82;7.03;;;;;;;-145.01;100.00;64805.59;4996126;28;20081;-61
2021/08/19 04:10:00;;;;;;;13.45;7.65;;;;;;;-145.01;100.00;64805.59;4995345;28;20053;-61
2021/08/19 04:12:27;;;;;;;16.17;7.47;;;;;;;-145.01;100.00;64805.59;4995348;28;20070;-61
2021/08/19 04:14:52;;;;;;;12.00;7.57;;;;;;;-145.01;100.00;64805.59;4995556;28;20389;-61
2021/08/19 04:17:18;;;;;;;13.40;7.15;;;;;;;-145.01;100.00;64805.59;4993878;28;20477;-60
2021/08/19 04:19:43;;;;;;;13.43;7.60;;;;;;;-145.01;100.00;64805.59;4995625;28;20030;-61
2021/08/19 04:22:09;;;;;;;16.65;7.40;;;;;;;-145.01;100.00;64805.59;4995438;28;20041;-61
2021/08/19 04:24:34;;;;;;;12.88;6.72;;;;;;;-145.01;100.00;64805.59;4995807;28;20053;-61
2021/08/19 04:27:00;;;;;;;12.32;7.25;;;;;;;-145.01;100.00;64805.59;4995290;28;20031;-61
2021/08/19 04:29:25;;;;;;;11.27;7.13;;;;;;;-145.01;100.00;64805.59;4995555;28;20022;-61
2021/08/19 04:31:50;;;;;;;16.25;7.90;;;;;;;-145.01;100.00;64805.59;4995111;28;20043;-61
2021/08/19 04:34:16;;;;;;;12.65;7.30;;;;;;;-145.01;100.00;64805.59;4995333;28;20034;-61
2021/08/19 04:36:41;;;;;;;13.65;7.20;;;;;;;-145.01;100.00;64805.59;4995025;28;20042;-61
2021/08/19 04:39:07;;;;;;;16.27;8.05;;;;;;;-145.01;100.00;64805.59;4994316;28;20034;-61
2021/08/19 04:41:32;;;;;;;16.90;8.20;;;;;;;-145.01;100.00;64805.59;4994986;28;20053;-61
2021/08/19 04:43:57;;;;;;;16.88;7.45;;;;;;;-145.01;100.00;64805.59;4995468;28;20031;-61
2021/08/19 04:46:23;;;;;;;17.67;7.20;;;;;;;-145.01;100.00;64805.59;4993262;28;20042;-61
2021/08/19 04:48:50;;;;;;;16.42;7.15;;;;;;;-145.01;100.00;64805.59;4995322;28;20061;-61
2021/08/19 04:51:16;;;;;;;14.52;7.82;;;;;;;-145.01;100.00;64805.59;4994917;28;20125;-61
2021/08/19 04:53:41;;;;;;;12.07;7.13;;;;;;;-145.01;100.00;64805.59;4995592;28;20026;-62
2021/08/19 04:56:07;;;;;;;20.50;8.27;;;;;;;-145.01;100.00;64805.59;4994801;28;20388;-61
2021/08/19 04:58:32;;;;;;;14.93;7.75;;;;;;;-145.01;100.00;64805.59;4995103;28;20030;-61
2021/08/19 05:00:58;;;;;;;12.68;7.50;;;;;;;-145.01;100.00;64805.59;4994709;28;20038;-61
2021/08/19 05:03:23;;;;;;;11.57;6.82;;;;;;;-145.01;100.00;64805.59;4994757;28;20037;-61
2021/08/19 05:05:48;;;;;;;14.45;7.00;;;;;;;-145.01;100.00;64805.59;4994621;28;20031;-61
2021/08/19 05:08:14;;;;;;;13.48;6.00;;;;;;;-145.01;100.00;64805.59;4994566;28;20030;-62
2021/08/19 05:10:39;;;;;;;10.40;5.80;;;;;;;-145.01;100.00;64805.59;4994291;28;20035;-61
2021/08/19 05:13:05;;;;;;;9.45;5.40;;;;;;;-145.01;100.00;64805.59;4994658;28;20026;-61
2021/08/19 05:15:30;;;;;;;8.18;4.50;;;;;;;-145.01;100.00;64805.59;4993789;28;20089;-61
2021/08/19 05:17:56;;;;;;;7.68;4.90;;;;;;;-145.01;100.00;64805.59;4977261;28;20030;-61
2021/08/19 05:20:21;;;;;;;7.82;4.25;;;;;;;-145.01;100.00;64805.59;4994062;28;20034;-62
2021/08/19 05:22:47;;;;;;;8.48;4.40;;;;;;;-145.01;100.00;64805.59;4994375;28;20194;-61
2021/08/19 05:25:12;;;;;;;8.75;4.68;;;;;;;-145.01;100.00;64805.59;4993894;28;20045;-61
2021/08/19 05:27:38;;;;;;;9.55;4.97;;;;;;;-145.01;100.00;64805.59;4993286;28;20081;-61
2021/08/19 05:30:03;;;;;;;7.45;4.18;;;;;;;-145.01;100.00;64805.59;4993854;28;20026;-62
2021/08/19 05:32:29;;;;;;;7.95;4.50;;;;;;;-145.01;100.00;64805.59;4994150;28;20469;-62
2021/08/19 05:34:54;;;;;;;11.07;4.90;;;;;;;-145.01;100.00;64805.59;4994167;28;20026;-61
2021/08/19 05:37:20;;;;;;;10.45;4.90;;;;;;;-145.01;100.00;64805.59;4993778;28;20090;-61
2021/08/19 05:39:45;;;;;;;14.80;4.82;;;;;;;-145.01;100.00;64805.59;4994359;28;20026;-61
2021/08/19 05:42:11;;;;;;;9.57;5.32;;;;;;;-145.01;100.00;64805.59;4993574;28;20085;-61
2021/08/19 05:44:37;;;;;;;13.88;5.00;;;;;;;-145.01;100.00;64805.59;4992674;28;20038;-61
2021/08/19 05:47:05;;;;;;;8.52;4.55;;;;;;;-145.01;100.00;64805.59;4992253;28;20043;-61
2021/08/19 05:49:33;;;;;;;10.27;4.95;;;;;;;-145.01;100.00;64805.59;4992717;28;20081;-61
2021/08/19 05:51:58;;;;;;;11.13;4.97;;;;;;;-145.01;100.00;64805.59;4992428;28;20038;-61
2021/08/19 05:54:24;;;;;;;7.97;4.50;;;;;;;-145.01;100.00;64805.59;4992698;28;20034;-61
2021/08/19 05:56:49;;;;;;;9.73;4.75;;;;;;;-145.01;100.00;64805.59;4993464;28;20061;-61
2021/08/19 05:59:15;;;;;;;8.88;4.57;;;;;;;-145.01;100.00;64805.59;4993853;28;20029;-61
2021/08/19 06:01:40;;;;;;;8.52;4.65;;;;;;;-145.01;100.00;64805.59;4993369;28;20057;-61
2021/08/19 06:04:06;;;;;;;8.75;4.07;;;;;;;-145.01;100.00;64805.59;4992354;28;20026;-61
2021/08/19 06:06:31;;;;;;;14.13;4.68;;;;;;;-145.01;100.00;64805.59;4993095;28;20046;-61
2021/08/19 06:08:57;;;;;;;8.48;3.65;;;;;;;-145.01;100.00;64805.59;4993511;28;20042;-61
2021/08/19 06:11:22;;;;;;;7.57;3.70;;;;;;;-145.01;100.00;64805.59;4993246;28;20042;-61
2021/08/19 06:13:48;;;;;;;11.43;3.80;;;;;;;-145.01;100.00;64805.59;4993452;28;20030;-61
2021/08/19 06:16:13;;;;;;;11.80;4.25;;;;;;;-145.01;100.00;64805.59;4993155;28;20041;-61
2021/08/19 06:18:39;;;;;;;13.13;4.88;;;;;;;-145.01;100.00;64805.59;4993363;28;20046;-61
2021/08/19 06:21:04;;;;;;;7.85;4.13;;;;;;;-145.01;100.00;64805.59;4991746;28;20038;-61
2021/08/19 06:23:30;;;;;;;8.25;3.47;;;;;;;-145.01;100.00;64805.59;4993570;28;20178;-61
2021/08/19 06:25:55;;;;;;;6.50;3.55;;;;;;;-145.01;100.00;64805.59;4992963;28;20037;-61
2021/08/19 06:28:24;;;;;;;6.85;3.88;;;;;;;-145.01;100.00;64805.59;4992173;28;20023;-61
2021/08/19 06:30:50;;;;;;;8.73;4.05;;;;;;;-145.01;100.00;64805.59;4993105;28;20401;-62
2021/08/19 06:33:16;;;;;;;8.45;5.18;;;;;;;-145.01;100.00;64805.59;4993714;28;20385;-62
2021/08/19 06:35:41;;;;;;;10.05;5.07;;;;;;;-145.01;100.00;64805.59;4991177;28;20079;-60
2021/08/19 06:38:07;;;;;;;8.68;5.50;;;;;;;-145.01;100.00;64805.59;4993235;28;20029;-60
2021/08/19 06:40:32;;;;;;;8.50;5.47;;;;;;;-145.01;100.00;64805.59;4993100;28;20035;-64
2021/08/19 06:42:58;;;;;;;9.18;5.32;;;;;;;-145.01;100.00;64805.59;4993273;28;20026;-60
2021/08/19 06:45:23;;;;;;;13.65;5.40;;;;;;;-145.01;100.00;64805.59;4992863;28;20031;-62
2021/08/19 06:47:49;;;;;;;9.77;5.88;;;;;;;-145.01;100.00;64805.59;4992377;28;20022;-63
2021/08/19 06:50:14;;;;;;;8.93;5.28;;;;;;;-145.01;100.00;64805.59;4991543;28;20027;-61
2021/08/19 06:52:40;;;;;;;9.38;5.10;;;;;;;-145.01;100.00;64805.59;4993211;28;20114;-61
2021/08/19 06:55:09;;;;;;;10.73;5.47;;;;;;;-145.01;100.00;64805.59;4992846;28;20026;-65
2021/08/19 06:57:35;;;;;;;9.80;5.27;;;;;;;-145.01;100.00;64805.59;4993275;28;20054;-61
2021/08/19 07:00:00;;;;;;;8.45;5.35;;;;;;;-145.01;100.00;64805.59;4993059;28;20634;-61
2021/08/19 07:02:26;;;;;;;11.80;5.20;;;;;;;-145.01;100.00;64805.59;4992722;28;20058;-61
2021/08/19 07:04:51;;;;;;;10.98;4.60;;;;;;;-145.01;100.00;64805.59;4993089;28;20030;-61
2021/08/19 07:07:17;;;;;;;10.65;4.93;;;;;;;-145.01;100.00;64805.59;4992571;28;20043;-61
2021/08/19 07:09:42;;;;;;;9.50;4.32;;;;;;;-145.01;100.00;64805.59;4991434;28;20043;-67
2021/08/19 07:12:07;;;;;;;12.60;4.97;;;;;;;-145.01;100.00;64805.59;4992698;28;20386;-61
2021/08/19 07:14:33;;;;;;;8.77;4.55;;;;;;;-145.01;100.00;64805.59;4993095;28;20542;-60
2021/08/19 07:16:58;;;;;;;9.60;4.65;;;;;;;-145.01;100.00;64805.59;4992281;28;20039;-61
2021/08/19 07:19:24;;;;;;;10.20;4.82;;;;;;;-145.01;100.00;64805.59;4993141;28;20022;-61
2021/08/19 07:21:49;;;;;;;8.98;4.30;;;;;;;-145.01;100.00;64805.59;4992489;28;20058;-60
2021/08/19 07:24:15;;;;;;;8.15;4.70;;;;;;;-145.01;100.00;64805.59;4992806;28;20034;-61
2021/08/19 07:26:40;;;;;;;13.25;4.78;;;;;;;-145.01;100.00;64805.59;4992465;28;20050;-61
2021/08/19 07:29:06;;;;;;;8.02;3.90;;;;;;;-145.01;100.00;64805.59;4991579;28;20035;-62
2021/08/19 07:31:32;;;;;;;7.38;3.35;;;;;;;-145.01;100.00;64805.59;4991174;28;20481;-61
2021/08/19 07:33:58;;;;;;;8.85;3.40;;;;;;;-145.01;100.00;64805.59;4992703;28;20102;-61
2021/08/19 07:36:23;;;;;;;6.80;2.65;;;;;;;-145.01;100.00;64805.59;4992263;28;20034;-61
2021/08/19 07:38:48;;;;;;;8.10;2.42;;;;;;;-145.01;100.00;64805.59;4992853;28;20258;-61
2021/08/19 07:41:14;;;;;;;6.63;2.53;;;;;;;-145.01;100.00;64805.59;4990914;28;20045;-61
2021/08/19 07:43:39;;;;;;;4.55;2.38;;;;;;;-145.01;100.00;64805.59;4992654;28;20030;-61
2021/08/19 07:46:05;;;;;;;3.92;2.33;;;;;;;-145.01;100.00;64805.59;4990975;28;20113;-61
2021/08/19 07:48:30;;;;;;;3.70;2.45;;;;;;;-145.01;100.00;64805.59;4994052;28;20057;-61
2021/08/19 07:50:56;;;;;;;5.53;2.97;;;;;;;-145.01;100.00;64805.59;4994519;28;20035;-61
2021/08/19 07:53:22;;;;;;;5.95;3.55;;;;;;;-145.01;100.00;64805.59;4996215;28;20097;-61
2021/08/19 07:55:47;;;;;;;7.13;3.55;;;;;;;-145.01;100.00;64805.59;4995538;28;20436;-61
2021/08/19 07:58:13;;;;;;;8.00;4.50;;;;;;;-145.01;100.00;64805.59;4996054;28;20085;-60
2021/08/19 08:00:38;;;;;;;5.60;3.80;;;;;;;-145.01;100.00;64805.59;4995424;28;20039;-60
2021/08/19 08:03:04;;;;;;;5.85;3.70;;;;;;;-145.01;100.00;64805.59;4995684;28;20038;-60
2021/08/19 08:05:31;;;;;;;7.10;3.78;;;;;;;-145.01;100.00;64805.59;4995519;28;20046;-60
2021/08/19 08:08:07;;;;;;;6.15;3.53;;;;;;;-145.01;100.00;64805.59;4996181;28;20033;-60
2021/08/19 08:10:35;;;;;;;6.93;3.90;;;;;;;-145.01;100.00;64805.59;4994027;28;20042;-60
2021/08/19 08:13:00;;;;;;;10.15;4.35;;;;;;;-145.01;100.00;64805.59;4995567;28;20038;-60
2021/08/19 08:15:26;;;;;;;6.45;4.10;;;;;;;-145.01;100.00;64805.59;4995574;28;20389;-61
2021/08/19 08:17:52;;;;;;;10.10;3.95;;;;;;;-145.01;100.00;64805.59;4995776;28;20358;-61
2021/08/19 08:20:17;;;;;;;8.85;3.78;;;;;;;-145.01;100.00;64805.59;4995454;28;20026;-60
2021/08/19 08:22:43;;;;;;;9.70;4.53;;;;;;;-145.01;100.00;64805.59;4995569;28;20018;-60
2021/08/19 08:25:09;;;;;;;9.20;4.95;;;;;;;-145.01;100.00;64805.59;4995245;28;20354;-61
2021/08/19 08:27:35;;;;;;;6.57;4.22;;;;;;;-145.01;100.00;64805.59;4995414;28;20018;-60
2021/08/19 08:30:00;;;;;;;8.93;4.45;;;;;;;-145.01;100.00;64805.59;4995301;28;20041;-62
2021/08/19 08:32:26;;;;;;;8.52;4.15;;;;;;;-145.01;100.00;64805.59;4993792;28;20031;-60
2021/08/19 08:34:52;;;;;;;7.57;4.25;;;;;;;-145.01;100.00;64805.59;4995216;28;20034;-60
2021/08/19 08:37:17;;;;;;;8.95;4.35;;;;;;;-145.01;100.00;64805.59;4994727;28;20027;-60
2021/08/19 08:39:44;;;;;;;8.65;4.80;;;;;;;-145.01;100.00;64805.59;4995209;28;20030;-60
2021/08/19 08:42:12;;;;;;;6.28;3.95;;;;;;;-145.01;100.00;64805.59;4994580;28;20069;-61
2021/08/19 08:44:38;;;;;;;10.57;4.55;;;;;;;-145.01;100.00;64805.59;4994949;28;20473;-61
2021/08/19 08:47:04;;;;;;;6.55;4.47;;;;;;;-145.01;100.00;64805.59;4994591;28;20046;-61
2021/08/19 08:49:30;;;;;;;8.07;4.35;;;;;;;-145.01;100.00;64805.59;4993830;28;20029;-61
2021/08/19 08:51:57;;;;;;;6.60;4.25;;;;;;;-145.01;100.00;64805.59;4994783;28;20092;-61
2021/08/19 08:54:28;;;;;;;6.13;3.88;;;;;;;-145.01;100.00;64805.59;4994997;28;20022;-61
2021/08/19 08:56:53;;;;;;;11.13;4.25;;;;;;;-145.01;100.00;64805.59;4993260;28;20555;-61
2021/08/19 08:59:18;;;;;;;7.43;3.97;;;;;;;-145.01;100.00;64805.59;4993393;28;20030;-60
2021/08/19 09:01:44;;;;;;;6.05;3.97;;;;;;;-145.01;100.00;64805.59;4994389;28;20034;-61
2021/08/19 09:04:09;;;;;;;5.00;3.45;;;;;;;-145.01;100.00;64805.59;4994749;28;20389;-60
2021/08/19 09:06:36;;;;;;;8.95;4.00;;;;;;;-145.01;100.00;64805.59;4994384;28;20489;-63
2021/08/19 09:09:29;;;;;;;5.40;3.60;;;;;;;-145.01;100.00;64805.59;4993159;28;20404;-62
2021/08/19 09:12:03;;;;;;;5.95;3.97;;;;;;;-145.01;100.00;64805.59;4992662;28;20173;-60
2021/08/19 09:14:35;;;;;;;6.07;3.65;;;;;;;-145.01;100.00;64805.59;4994579;28;20113;-61
2021/08/19 09:17:01;;;;;;;6.15;3.72;;;;;;;-145.01;100.00;64805.59;4992496;28;20049;-61
2021/08/19 09:19:30;;;;;;;5.93;3.83;;;;;;;-145.01;100.00;64805.59;4994415;28;20105;-60
2021/08/19 09:21:59;;;;;;;5.88;4.00;;;;;;;-145.01;100.00;64805.59;4993880;28;20041;-60
2021/08/19 09:24:26;;;;;;;5.60;3.78;;;;;;;-145.01;100.00;64805.59;4994436;28;20026;-61
2021/08/19 09:26:53;;;;;;;6.95;3.67;;;;;;;-145.01;100.00;64805.59;4993875;28;20501;-61
2021/08/19 09:29:19;;;;;;;9.65;4.88;;;;;;;-145.01;100.00;64805.59;4992948;28;20457;-61
2021/08/19 09:31:46;;;;;;;8.65;6.05;;;;;;;-145.01;100.00;64805.59;4993871;28;20038;-61
2021/08/19 09:34:11;;;;;;;5.50;3.50;;;;;;;-145.01;100.00;64805.59;4994010;28;20504;-61
2021/08/19 09:36:37;;;;;;;3.70;1.95;;;;;;;-145.01;100.00;64805.59;4976214;28;20042;-62
2021/08/19 09:39:04;;;;;;;6.00;2.30;;;;;;;-145.01;100.00;64805.59;4994209;28;20059;-61
2021/08/19 09:41:29;;;;;;;9.80;5.28;;;;;;;-145.01;100.00;64805.59;4993684;28;20034;-61
2021/08/19 09:43:55;;;;;;;9.57;5.50;;;;;;;-145.01;100.00;64805.59;4993931;28;20026;-61
2021/08/19 09:46:36;;;;;;;11.15;5.63;;;;;;;-145.01;100.00;64805.59;4993526;28;20485;-61
2021/08/19 09:49:29;;;;;;;7.70;5.20;;;;;;;-145.01;100.00;64805.59;4993891;28;20465;-61
2021/08/19 09:52:09;;;;;;;10.45;5.47;;;;;;;-145.01;100.00;64805.59;4992401;28;20081;-61
2021/08/19 09:54:39;;;;;;;12.45;5.85;;;;;;;-145.01;100.00;64805.59;4993795;28;20023;-61
2021/08/19 09:57:05;;;;;;;8.43;5.75;;;;;;;-145.01;100.00;64805.59;4993370;28;20046;-60
2021/08/19 09:59:35;;;;;;;10.98;4.80;;;;;;;-145.01;100.00;64805.59;4993704;28;20645;-61
2021/08/19 10:02:00;;;;;;;5.85;4.10;;;;;;;-145.01;100.00;64805.59;4993039;28;20043;-61
2021/08/19 10:04:26;;;;;;;6.43;3.92;;;;;;;-145.01;100.00;64805.59;4993748;28;20165;-61
2021/08/19 10:06:55;;;;;;;6.95;3.45;;;;;;;-145.01;100.00;64805.59;4993285;28;20049;-60
2021/08/19 10:09:20;;;;;;;5.72;3.22;;;;;;;-145.01;100.00;64805.59;4992291;28;20054;-60
2021/08/19 10:11:47;;;;;;;5.60;3.20;;;;;;;-145.01;100.00;64805.59;4991225;28;20039;-60
2021/08/19 10:14:17;;;;;;;5.63;3.30;;;;;;;-145.01;100.00;64805.59;4993473;28;20382;-61
2021/08/19 10:16:43;;;;;;;5.47;3.35;;;;;;;-145.01;100.00;64805.59;4993126;28;20504;-61
2021/08/19 10:19:19;;;;;;;8.52;4.93;;;;;;;-145.01;100.00;64805.59;4992647;28;20030;-61
2021/08/19 10:21:49;;;;;;;7.68;5.10;;;;;;;-145.01;100.00;64805.59;4975854;28;20485;-61
2021/08/19 10:24:14;;;;;;;5.13;3.33;;;;;;;-145.01;100.00;64805.59;4976291;28;20439;-60
2021/08/19 10:26:40;;;;;;;5.80;3.17;;;;;;;-145.01;100.00;64805.59;4991748;28;20057;-60
2021/08/19 10:29:05;;;;;;;6.95;4.00;;;;;;;-145.01;100.00;64805.59;4992448;28;20022;-61
2021/08/19 10:31:38;;;;;;;5.30;3.45;;;;;;;-145.01;100.00;64805.59;4991724;28;20038;-61
2021/08/19 10:34:03;;;;;;;7.03;3.45;;;;;;;-145.01;100.00;64805.59;4993397;28;20560;-61
2021/08/19 10:36:29;;;;;;;4.10;2.50;;;;;;;-145.01;100.00;64805.59;4992930;28;20073;-61
2021/08/19 10:39:16;;;;;;;3.53;2.00;;;;;;;-145.01;100.00;64805.59;4993180;28;20385;-61
2021/08/19 10:41:41;;;;;;;2.20;1.60;;;;;;;-145.01;100.00;64805.59;4992796;28;20045;-61
2021/08/19 10:44:08;;;;;;;7.55;1.80;;;;;;;-145.01;100.00;64805.59;4993279;28;20022;-61
2021/08/19 10:46:40;;;;;;;2.63;1.67;;;;;;;-145.01;100.00;64805.59;4992705;28;20030;-61
2021/08/19 10:49:05;;;;;;;6.05;1.98;;;;;;;-145.01;100.00;64805.59;4993104;28;20105;-61
2021/08/19 10:51:31;;;;;;;3.05;1.90;;;;;;;-145.01;100.00;64805.59;4992632;28;20571;-61
2021/08/19 10:53:56;;;;;;;2.80;1.80;;;;;;;-145.01;100.00;64805.59;4992934;28;20412;-61
2021/08/19 10:56:43;;;;;;;4.32;2.00;;;;;;;-145.01;100.00;64805.59;4992536;28;20042;-61
2021/08/19 10:59:28;;;;;;;3.83;1.90;;;;;;;-145.01;100.00;64805.59;4993123;28;20053;-61
2021/08/19 11:01:53;;;;;;;4.10;2.28;;;;;;;-145.01;100.00;64805.59;4991201;28;20034;-61